sensor_id;sensor_type;location;lat;lon;timestamp;P1;durP1;ratioP1;P2;durP2;ratioP2
30872;SDS011;17579;42.690;2.586;2023-07-31T00:01:24;3.05;;;2.40;;
30872;SDS011;17579;42.690;2.586;2023-07-31T00:04:13;4.40;;;2.58;;
30872;SDS011;17579;42.690;2.586;2023-07-31T00:06:38;3.97;;;2.60;;
30872;SDS011;17579;42.690;2.586;2023-07-31T00:09:03;3.50;;;2.50;;
30872;SDS011;17579;42.690;2.586;2023-07-31T00:11:29;2.90;;;2.13;;
30872;SDS011;17579;42.690;2.586;2023-07-31T00:14:01;2.15;;;1.95;;
30872;SDS011;17579;42.690;2.586;2023-07-31T00:16:29;5.00;;;2.45;;
30872;SDS011;17579;42.690;2.586;2023-07-31T00:18:55;3.53;;;2.58;;
30872;SDS011;17579;42.690;2.586;2023-07-31T00:21:23;3.42;;;2.25;;
30872;SDS011;17579;42.690;2.586;2023-07-31T00:23:49;3.72;;;2.50;;
30872;SDS011;17579;42.690;2.586;2023-07-31T00:26:14;3.38;;;2.35;;
30872;SDS011;17579;42.690;2.586;2023-07-31T00:28:43;2.88;;;2.17;;
30872;SDS011;17579;42.690;2.586;2023-07-31T00:31:09;3.85;;;2.33;;
30872;SDS011;17579;42.690;2.586;2023-07-31T00:33:35;3.72;;;2.17;;
30872;SDS011;17579;42.690;2.586;2023-07-31T00:36:04;3.65;;;1.95;;
30872;SDS011;17579;42.690;2.586;2023-07-31T00:38:32;2.95;;;2.45;;
30872;SDS011;17579;42.690;2.586;2023-07-31T00:41:21;3.15;;;2.17;;
30872;SDS011;17579;42.690;2.586;2023-07-31T00:43:47;2.38;;;1.95;;
30872;SDS011;17579;42.690;2.586;2023-07-31T00:46:12;2.30;;;2.10;;
30872;SDS011;17579;42.690;2.586;2023-07-31T00:48:49;2.58;;;1.70;;
30872;SDS011;17579;42.690;2.586;2023-07-31T00:51:15;2.58;;;1.80;;
30872;SDS011;17579;42.690;2.586;2023-07-31T00:54:06;3.58;;;2.40;;
30872;SDS011;17579;42.690;2.586;2023-07-31T00:56:38;3.03;;;1.95;;
30872;SDS011;17579;42.690;2.586;2023-07-31T00:59:06;3.22;;;2.00;;
30872;SDS011;17579;42.690;2.586;2023-07-31T01:02:14;2.17;;;1.80;;
30872;SDS011;17579;42.690;2.586;2023-07-31T01:04:23;2.20;;;2.00;;
30872;SDS011;17579;42.690;2.586;2023-07-31T01:06:52;2.10;;;1.90;;
30872;SDS011;17579;42.690;2.586;2023-07-31T01:11:56;3.80;;;2.17;;
30872;SDS011;17579;42.690;2.586;2023-07-31T01:14:31;3.00;;;2.35;;
30872;SDS011;17579;42.690;2.586;2023-07-31T01:17:00;2.65;;;1.95;;
30872;SDS011;17579;42.690;2.586;2023-07-31T01:19:26;2.80;;;1.90;;
30872;SDS011;17579;42.690;2.586;2023-07-31T01:22:31;3.53;;;2.22;;
30872;SDS011;17579;42.690;2.586;2023-07-31T01:25:16;1.83;;;1.70;;
30872;SDS011;17579;42.690;2.586;2023-07-31T01:27:59;2.88;;;2.10;;
30872;SDS011;17579;42.690;2.586;2023-07-31T01:30:32;2.30;;;1.83;;
30872;SDS011;17579;42.690;2.586;2023-07-31T01:33:01;2.28;;;2.00;;
30872;SDS011;17579;42.690;2.586;2023-07-31T01:35:34;3.13;;;1.80;;
30872;SDS011;17579;42.690;2.586;2023-07-31T01:38:01;2.83;;;2.13;;
30872;SDS011;17579;42.690;2.586;2023-07-31T01:41:12;2.20;;;1.90;;
30872;SDS011;17579;42.690;2.586;2023-07-31T01:43:21;3.95;;;2.03;;
30872;SDS011;17579;42.690;2.586;2023-07-31T01:45:48;2.83;;;1.80;;
30872;SDS011;17579;42.690;2.586;2023-07-31T01:48:16;2.97;;;1.85;;
30872;SDS011;17579;42.690;2.586;2023-07-31T01:50:45;2.63;;;1.95;;
30872;SDS011;17579;42.690;2.586;2023-07-31T01:53:13;3.05;;;2.33;;
30872;SDS011;17579;42.690;2.586;2023-07-31T01:55:41;2.33;;;2.10;;
30872;SDS011;17579;42.690;2.586;2023-07-31T01:58:09;2.17;;;1.83;;
30872;SDS011;17579;42.690;2.586;2023-07-31T02:00:37;3.67;;;2.20;;
30872;SDS011;17579;42.690;2.586;2023-07-31T02:03:03;2.38;;;1.92;;
30872;SDS011;17579;42.690;2.586;2023-07-31T02:05:29;3.67;;;2.50;;
30872;SDS011;17579;42.690;2.586;2023-07-31T02:07:54;3.22;;;1.90;;
30872;SDS011;17579;42.690;2.586;2023-07-31T02:10:20;2.53;;;2.15;;
30872;SDS011;17579;42.690;2.586;2023-07-31T02:12:49;2.70;;;2.10;;
30872;SDS011;17579;42.690;2.586;2023-07-31T02:15:14;4.32;;;2.00;;
30872;SDS011;17579;42.690;2.586;2023-07-31T02:17:40;2.05;;;1.80;;
30872;SDS011;17579;42.690;2.586;2023-07-31T02:20:06;2.30;;;2.10;;
30872;SDS011;17579;42.690;2.586;2023-07-31T02:22:32;2.90;;;2.03;;
30872;SDS011;17579;42.690;2.586;2023-07-31T02:25:06;4.55;;;2.13;;
30872;SDS011;17579;42.690;2.586;2023-07-31T02:27:40;2.20;;;2.00;;
30872;SDS011;17579;42.690;2.586;2023-07-31T02:30:09;3.72;;;2.15;;
30872;SDS011;17579;42.690;2.586;2023-07-31T02:32:35;2.92;;;2.40;;
30872;SDS011;17579;42.690;2.586;2023-07-31T02:35:08;2.38;;;2.10;;
30872;SDS011;17579;42.690;2.586;2023-07-31T02:37:40;2.83;;;2.05;;
30872;SDS011;17579;42.690;2.586;2023-07-31T02:40:14;2.42;;;2.22;;
30872;SDS011;17579;42.690;2.586;2023-07-31T02:42:43;2.85;;;2.20;;
30872;SDS011;17579;42.690;2.586;2023-07-31T02:45:11;2.80;;;1.73;;
30872;SDS011;17579;42.690;2.586;2023-07-31T02:47:39;2.30;;;2.10;;
30872;SDS011;17579;42.690;2.586;2023-07-31T02:50:05;2.10;;;1.90;;
30872;SDS011;17579;42.690;2.586;2023-07-31T02:52:40;2.28;;;1.80;;
30872;SDS011;17579;42.690;2.586;2023-07-31T02:55:24;3.42;;;1.98;;
30872;SDS011;17579;42.690;2.586;2023-07-31T02:57:50;2.60;;;2.05;;
30872;SDS011;17579;42.690;2.586;2023-07-31T03:00:17;2.30;;;2.10;;
30872;SDS011;17579;42.690;2.586;2023-07-31T03:02:43;2.63;;;2.03;;
30872;SDS011;17579;42.690;2.586;2023-07-31T03:05:50;2.50;;;2.25;;
30872;SDS011;17579;42.690;2.586;2023-07-31T03:08:39;3.65;;;2.40;;
30872;SDS011;17579;42.690;2.586;2023-07-31T03:10:51;3.42;;;2.13;;
30872;SDS011;17579;42.690;2.586;2023-07-31T03:13:38;3.47;;;2.22;;
30872;SDS011;17579;42.690;2.586;2023-07-31T03:16:23;3.25;;;2.28;;
30872;SDS011;17579;42.690;2.586;2023-07-31T03:19:11;3.85;;;2.40;;
30872;SDS011;17579;42.690;2.586;2023-07-31T03:21:37;4.43;;;2.55;;
30872;SDS011;17579;42.690;2.586;2023-07-31T03:24:03;3.22;;;2.35;;
30872;SDS011;17579;42.690;2.586;2023-07-31T03:26:31;3.45;;;2.30;;
30872;SDS011;17579;42.690;2.586;2023-07-31T03:29:00;3.97;;;2.50;;
30872;SDS011;17579;42.690;2.586;2023-07-31T03:31:26;3.67;;;2.53;;
30872;SDS011;17579;42.690;2.586;2023-07-31T03:33:52;3.15;;;2.28;;
30872;SDS011;17579;42.690;2.586;2023-07-31T03:36:17;2.28;;;2.08;;
30872;SDS011;17579;42.690;2.586;2023-07-31T03:38:46;3.00;;;2.28;;
30872;SDS011;17579;42.690;2.586;2023-07-31T03:41:23;2.42;;;2.20;;
30872;SDS011;17579;42.690;2.586;2023-07-31T03:43:57;2.58;;;2.00;;
30872;SDS011;17579;42.690;2.586;2023-07-31T03:46:23;3.63;;;2.25;;
30872;SDS011;17579;42.690;2.586;2023-07-31T03:48:54;3.40;;;2.20;;
30872;SDS011;17579;42.690;2.586;2023-07-31T03:54:06;2.05;;;1.85;;
30872;SDS011;17579;42.690;2.586;2023-07-31T03:56:33;2.53;;;2.30;;
30872;SDS011;17579;42.690;2.586;2023-07-31T03:59:03;3.58;;;2.45;;
30872;SDS011;17579;42.690;2.586;2023-07-31T04:01:32;3.53;;;2.20;;
30872;SDS011;17579;42.690;2.586;2023-07-31T04:03:58;2.58;;;2.03;;
30872;SDS011;17579;42.690;2.586;2023-07-31T04:06:23;3.08;;;2.20;;
30872;SDS011;17579;42.690;2.586;2023-07-31T04:08:52;3.33;;;2.20;;
30872;SDS011;17579;42.690;2.586;2023-07-31T04:11:22;2.25;;;1.98;;
30872;SDS011;17579;42.690;2.586;2023-07-31T04:13:50;3.42;;;2.20;;
30872;SDS011;17579;42.690;2.586;2023-07-31T04:16:21;2.92;;;2.20;;
30872;SDS011;17579;42.690;2.586;2023-07-31T04:18:46;3.17;;;2.17;;
30872;SDS011;17579;42.690;2.586;2023-07-31T04:21:19;2.70;;;2.05;;
30872;SDS011;17579;42.690;2.586;2023-07-31T04:23:45;2.45;;;2.13;;
30872;SDS011;17579;42.690;2.586;2023-07-31T04:26:10;3.13;;;2.25;;
30872;SDS011;17579;42.690;2.586;2023-07-31T04:28:36;3.28;;;2.40;;
30872;SDS011;17579;42.690;2.586;2023-07-31T04:31:02;2.90;;;2.00;;
30872;SDS011;17579;42.690;2.586;2023-07-31T04:33:37;3.47;;;2.17;;
30872;SDS011;17579;42.690;2.586;2023-07-31T04:36:10;2.22;;;2.00;;
30872;SDS011;17579;42.690;2.586;2023-07-31T04:38:38;3.22;;;2.45;;
30872;SDS011;17579;42.690;2.586;2023-07-31T04:41:06;4.15;;;2.22;;
30872;SDS011;17579;42.690;2.586;2023-07-31T04:43:39;2.45;;;1.92;;
30872;SDS011;17579;42.690;2.586;2023-07-31T04:46:10;4.03;;;2.80;;
30872;SDS011;17579;42.690;2.586;2023-07-31T04:48:36;4.28;;;2.35;;
30872;SDS011;17579;42.690;2.586;2023-07-31T04:51:01;4.57;;;2.63;;
30872;SDS011;17579;42.690;2.586;2023-07-31T04:53:27;3.28;;;2.75;;
30872;SDS011;17579;42.690;2.586;2023-07-31T04:55:53;3.05;;;2.25;;
30872;SDS011;17579;42.690;2.586;2023-07-31T05:01:06;3.42;;;2.40;;
30872;SDS011;17579;42.690;2.586;2023-07-31T05:03:32;4.55;;;2.47;;
30872;SDS011;17579;42.690;2.586;2023-07-31T05:05:58;3.03;;;2.35;;
30872;SDS011;17579;42.690;2.586;2023-07-31T05:08:23;3.58;;;2.47;;
30872;SDS011;17579;42.690;2.586;2023-07-31T05:10:49;3.65;;;2.65;;
30872;SDS011;17579;42.690;2.586;2023-07-31T05:13:18;3.10;;;2.40;;
30872;SDS011;17579;42.690;2.586;2023-07-31T05:15:46;4.30;;;2.63;;
30872;SDS011;17579;42.690;2.586;2023-07-31T05:18:19;4.13;;;2.42;;
30872;SDS011;17579;42.690;2.586;2023-07-31T05:20:45;4.40;;;2.28;;
30872;SDS011;17579;42.690;2.586;2023-07-31T05:23:19;2.65;;;2.30;;
30872;SDS011;17579;42.690;2.586;2023-07-31T05:25:45;3.65;;;2.50;;
30872;SDS011;17579;42.690;2.586;2023-07-31T05:28:24;2.83;;;1.90;;
30872;SDS011;17579;42.690;2.586;2023-07-31T05:30:52;2.50;;;2.30;;
30872;SDS011;17579;42.690;2.586;2023-07-31T05:33:55;2.55;;;2.28;;
30872;SDS011;17579;42.690;2.586;2023-07-31T05:36:21;3.35;;;2.42;;
30872;SDS011;17579;42.690;2.586;2023-07-31T05:38:46;3.30;;;2.28;;
30872;SDS011;17579;42.690;2.586;2023-07-31T05:41:14;2.80;;;2.33;;
30872;SDS011;17579;42.690;2.586;2023-07-31T05:43:53;2.42;;;2.22;;
30872;SDS011;17579;42.690;2.586;2023-07-31T05:46:22;4.53;;;2.20;;
30872;SDS011;17579;42.690;2.586;2023-07-31T05:48:49;3.58;;;2.53;;
30872;SDS011;17579;42.690;2.586;2023-07-31T05:51:15;2.30;;;2.00;;
30872;SDS011;17579;42.690;2.586;2023-07-31T05:53:41;2.92;;;2.15;;
30872;SDS011;17579;42.690;2.586;2023-07-31T05:56:24;2.42;;;2.22;;
30872;SDS011;17579;42.690;2.586;2023-07-31T05:59:04;2.42;;;2.15;;
30872;SDS011;17579;42.690;2.586;2023-07-31T06:01:38;3.15;;;2.30;;
30872;SDS011;17579;42.690;2.586;2023-07-31T06:04:15;3.55;;;2.40;;
30872;SDS011;17579;42.690;2.586;2023-07-31T06:07:06;2.40;;;2.20;;
30872;SDS011;17579;42.690;2.586;2023-07-31T06:12:31;3.80;;;2.30;;
30872;SDS011;17579;42.690;2.586;2023-07-31T06:14:57;2.35;;;2.15;;
30872;SDS011;17579;42.690;2.586;2023-07-31T06:17:23;2.67;;;2.20;;
30872;SDS011;17579;42.690;2.586;2023-07-31T06:19:56;5.10;;;2.63;;
30872;SDS011;17579;42.690;2.586;2023-07-31T06:22:34;3.70;;;2.33;;
30872;SDS011;17579;42.690;2.586;2023-07-31T06:25:20;3.58;;;2.40;;
30872;SDS011;17579;42.690;2.586;2023-07-31T06:27:48;2.78;;;2.17;;
30872;SDS011;17579;42.690;2.586;2023-07-31T06:30:25;3.97;;;2.60;;
30872;SDS011;17579;42.690;2.586;2023-07-31T06:32:51;4.75;;;2.40;;
30872;SDS011;17579;42.690;2.586;2023-07-31T06:35:17;3.30;;;2.30;;
30872;SDS011;17579;42.690;2.586;2023-07-31T06:37:51;2.85;;;2.28;;
30872;SDS011;17579;42.690;2.586;2023-07-31T06:40:26;3.88;;;2.25;;
30872;SDS011;17579;42.690;2.586;2023-07-31T06:42:55;3.55;;;2.63;;
30872;SDS011;17579;42.690;2.586;2023-07-31T06:45:34;3.15;;;2.42;;
30872;SDS011;17579;42.690;2.586;2023-07-31T06:48:03;3.25;;;2.63;;
30872;SDS011;17579;42.690;2.586;2023-07-31T06:50:31;4.43;;;3.22;;
30872;SDS011;17579;42.690;2.586;2023-07-31T06:52:59;4.75;;;2.58;;
30872;SDS011;17579;42.690;2.586;2023-07-31T06:55:25;2.78;;;2.40;;
30872;SDS011;17579;42.690;2.586;2023-07-31T06:57:55;2.72;;;2.47;;
30872;SDS011;17579;42.690;2.586;2023-07-31T07:00:23;3.10;;;2.53;;
30872;SDS011;17579;42.690;2.586;2023-07-31T07:02:58;2.40;;;1.95;;
30872;SDS011;17579;42.690;2.586;2023-07-31T07:05:27;3.88;;;2.70;;
30872;SDS011;17579;42.690;2.586;2023-07-31T07:07:53;2.67;;;2.30;;
30872;SDS011;17579;42.690;2.586;2023-07-31T07:10:18;3.03;;;2.75;;
30872;SDS011;17579;42.690;2.586;2023-07-31T07:13:04;2.63;;;2.40;;
30872;SDS011;17579;42.690;2.586;2023-07-31T07:15:30;3.30;;;2.80;;
30872;SDS011;17579;42.690;2.586;2023-07-31T07:17:59;4.15;;;2.53;;
30872;SDS011;17579;42.690;2.586;2023-07-31T07:20:29;3.00;;;2.63;;
30872;SDS011;17579;42.690;2.586;2023-07-31T07:22:55;3.63;;;2.78;;
30872;SDS011;17579;42.690;2.586;2023-07-31T07:25:23;3.10;;;2.63;;
30872;SDS011;17579;42.690;2.586;2023-07-31T07:27:49;3.83;;;3.10;;
30872;SDS011;17579;42.690;2.586;2023-07-31T07:30:18;2.95;;;2.63;;
30872;SDS011;17579;42.690;2.586;2023-07-31T07:32:53;4.43;;;2.47;;
30872;SDS011;17579;42.690;2.586;2023-07-31T07:35:27;2.80;;;2.40;;
30872;SDS011;17579;42.690;2.586;2023-07-31T07:38:01;2.83;;;2.50;;
30872;SDS011;17579;42.690;2.586;2023-07-31T07:40:32;4.97;;;2.70;;
30872;SDS011;17579;42.690;2.586;2023-07-31T07:42:58;3.08;;;2.47;;
30872;SDS011;17579;42.690;2.586;2023-07-31T07:45:41;4.32;;;2.70;;
30872;SDS011;17579;42.690;2.586;2023-07-31T07:48:20;4.55;;;2.70;;
30872;SDS011;17579;42.690;2.586;2023-07-31T07:50:51;3.13;;;2.83;;
30872;SDS011;17579;42.690;2.586;2023-07-31T07:53:17;4.07;;;2.95;;
30872;SDS011;17579;42.690;2.586;2023-07-31T07:55:46;3.42;;;2.90;;
30872;SDS011;17579;42.690;2.586;2023-07-31T07:58:17;2.97;;;2.55;;
30872;SDS011;17579;42.690;2.586;2023-07-31T08:00:48;3.30;;;2.50;;
30872;SDS011;17579;42.690;2.586;2023-07-31T08:06:10;4.10;;;2.60;;
30872;SDS011;17579;42.690;2.586;2023-07-31T08:08:55;3.75;;;3.10;;
30872;SDS011;17579;42.690;2.586;2023-07-31T08:11:36;4.05;;;2.83;;
30872;SDS011;17579;42.690;2.586;2023-07-31T08:14:39;6.10;;;2.88;;
30872;SDS011;17579;42.690;2.586;2023-07-31T08:16:59;4.32;;;3.00;;
30872;SDS011;17579;42.690;2.586;2023-07-31T08:19:38;4.15;;;3.30;;
30872;SDS011;17579;42.690;2.586;2023-07-31T08:22:25;3.33;;;3.03;;
30872;SDS011;17579;42.690;2.586;2023-07-31T08:25:22;2.65;;;2.40;;
30872;SDS011;17579;42.690;2.586;2023-07-31T08:28:10;3.58;;;2.97;;
30872;SDS011;17579;42.690;2.586;2023-07-31T08:30:48;2.92;;;2.65;;
30872;SDS011;17579;42.690;2.586;2023-07-31T08:33:18;3.67;;;2.83;;
30872;SDS011;17579;42.690;2.586;2023-07-31T08:35:46;3.65;;;2.80;;
30872;SDS011;17579;42.690;2.586;2023-07-31T08:38:15;3.85;;;2.63;;
30872;SDS011;17579;42.690;2.586;2023-07-31T08:40:48;3.53;;;3.22;;
30872;SDS011;17579;42.690;2.586;2023-07-31T08:43:22;3.80;;;3.15;;
30872;SDS011;17579;42.690;2.586;2023-07-31T08:45:51;6.45;;;3.05;;
30872;SDS011;17579;42.690;2.586;2023-07-31T08:48:50;3.72;;;3.20;;
30872;SDS011;17579;42.690;2.586;2023-07-31T08:51:44;3.40;;;3.10;;
30872;SDS011;17579;42.690;2.586;2023-07-31T08:54:24;3.33;;;3.00;;
30872;SDS011;17579;42.690;2.586;2023-07-31T08:56:58;2.88;;;2.67;;
30872;SDS011;17579;42.690;2.586;2023-07-31T08:59:28;4.00;;;2.80;;
30872;SDS011;17579;42.690;2.586;2023-07-31T09:02:04;4.28;;;3.15;;
30872;SDS011;17579;42.690;2.586;2023-07-31T09:04:58;3.58;;;3.28;;
30872;SDS011;17579;42.690;2.586;2023-07-31T09:08:50;3.00;;;2.80;;
30872;SDS011;17579;42.690;2.586;2023-07-31T09:11:17;3.30;;;3.00;;
30872;SDS011;17579;42.690;2.586;2023-07-31T09:13:49;3.60;;;3.22;;
30872;SDS011;17579;42.690;2.586;2023-07-31T09:16:15;3.80;;;2.72;;
30872;SDS011;17579;42.690;2.586;2023-07-31T09:21:22;4.18;;;3.08;;
30872;SDS011;17579;42.690;2.586;2023-07-31T09:23:52;5.00;;;3.13;;
30872;SDS011;17579;42.690;2.586;2023-07-31T09:28:52;3.88;;;2.83;;
30872;SDS011;17579;42.690;2.586;2023-07-31T09:34:28;3.95;;;2.80;;
30872;SDS011;17579;42.690;2.586;2023-07-31T09:37:15;4.22;;;3.08;;
30872;SDS011;17579;42.690;2.586;2023-07-31T09:39:45;3.20;;;2.90;;
30872;SDS011;17579;42.690;2.586;2023-07-31T09:45:11;3.20;;;2.85;;
30872;SDS011;17579;42.690;2.586;2023-07-31T09:50:34;5.28;;;3.38;;
30872;SDS011;17579;42.690;2.586;2023-07-31T09:53:09;3.63;;;2.95;;
30872;SDS011;17579;42.690;2.586;2023-07-31T09:55:44;3.33;;;3.03;;
30872;SDS011;17579;42.690;2.586;2023-07-31T09:58:17;3.60;;;2.90;;
30872;SDS011;17579;42.690;2.586;2023-07-31T10:00:53;3.22;;;2.90;;
30872;SDS011;17579;42.690;2.586;2023-07-31T10:03:31;3.15;;;2.92;;
30872;SDS011;17579;42.690;2.586;2023-07-31T10:06:25;3.13;;;2.90;;
30872;SDS011;17579;42.690;2.586;2023-07-31T10:09:05;4.15;;;2.60;;
30872;SDS011;17579;42.690;2.586;2023-07-31T10:12:06;4.35;;;3.05;;
30872;SDS011;17579;42.690;2.586;2023-07-31T10:14:33;3.40;;;2.58;;
30872;SDS011;17579;42.690;2.586;2023-07-31T10:17:07;4.25;;;3.33;;
30872;SDS011;17579;42.690;2.586;2023-07-31T10:22:48;2.85;;;2.65;;
30872;SDS011;17579;42.690;2.586;2023-07-31T10:25:38;3.95;;;3.10;;
30872;SDS011;17579;42.690;2.586;2023-07-31T10:28:03;3.13;;;2.92;;
30872;SDS011;17579;42.690;2.586;2023-07-31T10:31:14;3.58;;;3.28;;
30872;SDS011;17579;42.690;2.586;2023-07-31T10:33:26;3.10;;;2.80;;
30872;SDS011;17579;42.690;2.586;2023-07-31T10:38:40;3.47;;;3.17;;
30872;SDS011;17579;42.690;2.586;2023-07-31T10:41:11;3.47;;;3.00;;
30872;SDS011;17579;42.690;2.586;2023-07-31T10:43:40;3.10;;;2.80;;
30872;SDS011;17579;42.690;2.586;2023-07-31T10:46:14;3.38;;;2.85;;
30872;SDS011;17579;42.690;2.586;2023-07-31T10:48:49;3.58;;;3.22;;
30872;SDS011;17579;42.690;2.586;2023-07-31T10:51:39;3.45;;;3.15;;
30872;SDS011;17579;42.690;2.586;2023-07-31T10:54:10;3.20;;;2.90;;
30872;SDS011;17579;42.690;2.586;2023-07-31T10:56:52;4.30;;;3.28;;
30872;SDS011;17579;42.690;2.586;2023-07-31T10:59:34;3.20;;;2.95;;
30872;SDS011;17579;42.690;2.586;2023-07-31T11:02:02;3.78;;;3.40;;
30872;SDS011;17579;42.690;2.586;2023-07-31T11:04:29;3.50;;;3.20;;
30872;SDS011;17579;42.690;2.586;2023-07-31T11:07:17;4.90;;;3.30;;
30872;SDS011;17579;42.690;2.586;2023-07-31T11:09:46;3.42;;;3.03;;
30872;SDS011;17579;42.690;2.586;2023-07-31T11:12:33;4.32;;;3.35;;
30872;SDS011;17579;42.690;2.586;2023-07-31T11:18:00;4.38;;;3.38;;
30872;SDS011;17579;42.690;2.586;2023-07-31T11:20:40;3.72;;;3.30;;
30872;SDS011;17579;42.690;2.586;2023-07-31T11:23:07;3.97;;;3.15;;
30872;SDS011;17579;42.690;2.586;2023-07-31T11:25:34;3.72;;;3.00;;
30872;SDS011;17579;42.690;2.586;2023-07-31T11:28:10;4.07;;;3.00;;
30872;SDS011;17579;42.690;2.586;2023-07-31T11:30:59;3.20;;;3.00;;
30872;SDS011;17579;42.690;2.586;2023-07-31T11:33:26;3.38;;;2.88;;
30872;SDS011;17579;42.690;2.586;2023-07-31T11:38:41;4.05;;;3.22;;
30872;SDS011;17579;42.690;2.586;2023-07-31T11:41:14;4.10;;;3.70;;
30872;SDS011;17579;42.690;2.586;2023-07-31T11:43:45;4.03;;;3.35;;
30872;SDS011;17579;42.690;2.586;2023-07-31T11:46:40;3.10;;;2.80;;
30872;SDS011;17579;42.690;2.586;2023-07-31T11:49:08;3.70;;;3.40;;
30872;SDS011;17579;42.690;2.586;2023-07-31T11:51:43;3.65;;;3.35;;
30872;SDS011;17579;42.690;2.586;2023-07-31T11:54:19;5.68;;;3.60;;
30872;SDS011;17579;42.690;2.586;2023-07-31T11:59:39;5.03;;;3.33;;
30872;SDS011;17579;42.690;2.586;2023-07-31T12:02:08;4.53;;;3.22;;
30872;SDS011;17579;42.690;2.586;2023-07-31T12:04:34;3.92;;;3.20;;
30872;SDS011;17579;42.690;2.586;2023-07-31T12:07:07;3.40;;;3.10;;
30872;SDS011;17579;42.690;2.586;2023-07-31T12:09:37;3.58;;;3.33;;
30872;SDS011;17579;42.690;2.586;2023-07-31T12:12:24;5.55;;;3.35;;
30872;SDS011;17579;42.690;2.586;2023-07-31T12:14:55;3.58;;;3.28;;
30872;SDS011;17579;42.690;2.586;2023-07-31T12:17:23;3.80;;;3.28;;
30872;SDS011;17579;42.690;2.586;2023-07-31T12:19:53;4.05;;;3.60;;
30872;SDS011;17579;42.690;2.586;2023-07-31T12:22:22;3.60;;;3.30;;
30872;SDS011;17579;42.690;2.586;2023-07-31T12:24:55;3.55;;;3.22;;
30872;SDS011;17579;42.690;2.586;2023-07-31T12:27:23;4.05;;;3.70;;
30872;SDS011;17579;42.690;2.586;2023-07-31T12:29:56;3.85;;;3.50;;
30872;SDS011;17579;42.690;2.586;2023-07-31T12:32:24;3.78;;;3.40;;
30872;SDS011;17579;42.690;2.586;2023-07-31T12:35:11;4.25;;;3.85;;
30872;SDS011;17579;42.690;2.586;2023-07-31T12:37:42;4.00;;;3.50;;
30872;SDS011;17579;42.690;2.586;2023-07-31T12:40:20;3.63;;;3.05;;
30872;SDS011;17579;42.690;2.586;2023-07-31T12:42:46;3.65;;;3.35;;
30872;SDS011;17579;42.690;2.586;2023-07-31T12:45:12;7.47;;;3.53;;
30872;SDS011;17579;42.690;2.586;2023-07-31T12:47:48;4.25;;;3.53;;
30872;SDS011;17579;42.690;2.586;2023-07-31T12:50:18;4.00;;;3.60;;
30872;SDS011;17579;42.690;2.586;2023-07-31T12:52:49;3.95;;;3.65;;
30872;SDS011;17579;42.690;2.586;2023-07-31T12:55:15;4.25;;;3.78;;
30872;SDS011;17579;42.690;2.586;2023-07-31T12:57:43;4.55;;;3.63;;
30872;SDS011;17579;42.690;2.586;2023-07-31T13:00:11;3.92;;;3.53;;
30872;SDS011;17579;42.690;2.586;2023-07-31T13:02:45;3.90;;;3.50;;
30872;SDS011;17579;42.690;2.586;2023-07-31T13:05:16;4.57;;;4.18;;
30872;SDS011;17579;42.690;2.586;2023-07-31T13:10:31;3.88;;;3.58;;
30872;SDS011;17579;42.690;2.586;2023-07-31T13:12:57;4.00;;;3.47;;
30872;SDS011;17579;42.690;2.586;2023-07-31T13:16:38;4.07;;;3.67;;
30872;SDS011;17579;42.690;2.586;2023-07-31T13:18:42;3.90;;;3.60;;
30872;SDS011;17579;42.690;2.586;2023-07-31T13:21:12;4.20;;;3.90;;
30872;SDS011;17579;42.690;2.586;2023-07-31T13:23:48;4.15;;;3.80;;
30872;SDS011;17579;42.690;2.586;2023-07-31T13:26:19;3.97;;;3.67;;
30872;SDS011;17579;42.690;2.586;2023-07-31T13:28:44;4.60;;;4.22;;
30872;SDS011;17579;42.690;2.586;2023-07-31T13:31:13;4.32;;;4.03;;
30872;SDS011;17579;42.690;2.586;2023-07-31T13:33:39;4.30;;;4.00;;
30872;SDS011;17579;42.690;2.586;2023-07-31T13:36:28;3.60;;;3.30;;
30872;SDS011;17579;42.690;2.586;2023-07-31T13:38:59;4.32;;;3.92;;
30872;SDS011;17579;42.690;2.586;2023-07-31T13:41:25;4.38;;;3.97;;
30872;SDS011;17579;42.690;2.586;2023-07-31T13:43:53;4.80;;;4.00;;
30872;SDS011;17579;42.690;2.586;2023-07-31T13:46:21;4.68;;;4.28;;
30872;SDS011;17579;42.690;2.586;2023-07-31T13:48:47;4.13;;;3.63;;
30872;SDS011;17579;42.690;2.586;2023-07-31T13:51:13;3.88;;;3.58;;
30872;SDS011;17579;42.690;2.586;2023-07-31T13:53:38;3.80;;;3.50;;
30872;SDS011;17579;42.690;2.586;2023-07-31T13:56:06;4.10;;;3.80;;
30872;SDS011;17579;42.690;2.586;2023-07-31T13:58:34;4.22;;;3.83;;
30872;SDS011;17579;42.690;2.586;2023-07-31T14:01:00;3.50;;;3.28;;
30872;SDS011;17579;42.690;2.586;2023-07-31T14:03:28;4.20;;;3.60;;
30872;SDS011;17579;42.690;2.586;2023-07-31T14:05:54;4.85;;;3.75;;
30872;SDS011;17579;42.690;2.586;2023-07-31T14:08:21;3.67;;;3.38;;
30872;SDS011;17579;42.690;2.586;2023-07-31T14:10:50;4.00;;;3.70;;
30872;SDS011;17579;42.690;2.586;2023-07-31T14:13:16;4.32;;;3.80;;
30872;SDS011;17579;42.690;2.586;2023-07-31T14:15:42;5.03;;;3.78;;
30872;SDS011;17579;42.690;2.586;2023-07-31T14:18:08;4.10;;;3.80;;
30872;SDS011;17579;42.690;2.586;2023-07-31T14:20:34;4.00;;;3.70;;
30872;SDS011;17579;42.690;2.586;2023-07-31T14:23:02;4.00;;;3.60;;
30872;SDS011;17579;42.690;2.586;2023-07-31T14:25:28;4.07;;;3.75;;
30872;SDS011;17579;42.690;2.586;2023-07-31T14:27:54;5.43;;;3.88;;
30872;SDS011;17579;42.690;2.586;2023-07-31T14:30:20;4.53;;;3.35;;
30872;SDS011;17579;42.690;2.586;2023-07-31T14:32:51;3.80;;;3.50;;
30872;SDS011;17579;42.690;2.586;2023-07-31T14:35:22;3.83;;;3.53;;
30872;SDS011;17579;42.690;2.586;2023-07-31T14:37:50;3.88;;;3.47;;
30872;SDS011;17579;42.690;2.586;2023-07-31T14:40:18;3.45;;;3.17;;
30872;SDS011;17579;42.690;2.586;2023-07-31T14:42:44;3.35;;;3.05;;
30872;SDS011;17579;42.690;2.586;2023-07-31T14:45:10;3.88;;;3.35;;
30872;SDS011;17579;42.690;2.586;2023-07-31T14:47:47;3.78;;;3.47;;
30872;SDS011;17579;42.690;2.586;2023-07-31T14:50:20;3.75;;;3.45;;
30872;SDS011;17579;42.690;2.586;2023-07-31T14:52:49;3.83;;;3.42;;
30872;SDS011;17579;42.690;2.586;2023-07-31T14:55:15;3.88;;;3.47;;
30872;SDS011;17579;42.690;2.586;2023-07-31T14:57:40;4.55;;;3.53;;
30872;SDS011;17579;42.690;2.586;2023-07-31T15:00:12;4.00;;;3.60;;
30872;SDS011;17579;42.690;2.586;2023-07-31T15:02:38;4.07;;;3.70;;
30872;SDS011;17579;42.690;2.586;2023-07-31T15:05:09;3.45;;;3.25;;
30872;SDS011;17579;42.690;2.586;2023-07-31T15:07:40;3.78;;;3.47;;
30872;SDS011;17579;42.690;2.586;2023-07-31T15:10:09;4.65;;;3.90;;
30872;SDS011;17579;42.690;2.586;2023-07-31T15:12:43;3.92;;;3.20;;
30872;SDS011;17579;42.690;2.586;2023-07-31T15:15:11;3.80;;;3.50;;
30872;SDS011;17579;42.690;2.586;2023-07-31T15:17:43;3.90;;;3.50;;
30872;SDS011;17579;42.690;2.586;2023-07-31T15:20:09;3.55;;;3.30;;
30872;SDS011;17579;42.690;2.586;2023-07-31T15:22:37;4.53;;;3.88;;
30872;SDS011;17579;42.690;2.586;2023-07-31T15:25:03;3.95;;;3.60;;
30872;SDS011;17579;42.690;2.586;2023-07-31T15:27:37;3.50;;;3.20;;
30872;SDS011;17579;42.690;2.586;2023-07-31T15:30:09;4.20;;;3.80;;
30872;SDS011;17579;42.690;2.586;2023-07-31T15:32:37;5.47;;;3.83;;
30872;SDS011;17579;42.690;2.586;2023-07-31T15:35:11;3.85;;;3.55;;
30872;SDS011;17579;42.690;2.586;2023-07-31T15:37:41;4.65;;;3.83;;
30872;SDS011;17579;42.690;2.586;2023-07-31T15:40:14;3.97;;;3.60;;
30872;SDS011;17579;42.690;2.586;2023-07-31T15:42:40;5.75;;;3.65;;
30872;SDS011;17579;42.690;2.586;2023-07-31T15:45:07;4.07;;;3.45;;
30872;SDS011;17579;42.690;2.586;2023-07-31T15:47:43;3.83;;;3.00;;
30872;SDS011;17579;42.690;2.586;2023-07-31T15:50:11;3.80;;;3.50;;
30872;SDS011;17579;42.690;2.586;2023-07-31T15:52:37;3.97;;;3.58;;
30872;SDS011;17579;42.690;2.586;2023-07-31T15:55:21;4.20;;;3.55;;
30872;SDS011;17579;42.690;2.586;2023-07-31T16:00:44;4.07;;;3.42;;
30872;SDS011;17579;42.690;2.586;2023-07-31T16:03:10;3.47;;;3.28;;
30872;SDS011;17579;42.690;2.586;2023-07-31T16:05:38;4.13;;;3.58;;